Time;durP1;ratioP1;P1;durP2;ratioP2;P2;SDS_P1;SDS_P2;PMS_P1;PMS_P2;Temp;Humidity;BMP_temperature;BMP_pressure;BME280_temperature;BME280_humidity;BME280_pressure;Samples;Min_cycle;Max_cycle;Signal;HPM_P1;HPM_P2
2021/08/15 00:01:34;;;;;;;10.90;9.90;;;;;;;;;;5088692;28;20123;-83
2021/08/15 00:04:00;;;;;;;11.27;10.10;;;;;;;;;;5105977;28;20550;-82
2021/08/15 00:06:27;;;;;;;11.30;9.82;;;;;;;;;;5104533;28;20040;-84
2021/08/15 00:08:55;;;;;;;11.40;10.30;;;;;;;;;;5104114;28;20423;-84
2021/08/15 00:11:22;;;;;;;13.07;10.02;;;;;;;;;;5103154;28;20048;-84
2021/08/15 00:13:48;;;;;;;12.18;9.88;;;;;;;;;;5103547;28;20048;-84
2021/08/15 00:16:15;;;;;;;12.85;11.13;;;;;;;;;;5102293;28;20052;-84
2021/08/15 00:18:42;;;;;;;11.02;10.02;;;;;;;;;;5104887;28;20069;-84
2021/08/15 00:21:09;;;;;;;11.50;10.40;;;;;;;;;;5103298;28;20440;-84
2021/08/15 00:23:35;;;;;;;11.20;10.18;;;;;;;;;;5104035;28;20516;-84
2021/08/15 00:26:03;;;;;;;11.57;10.48;;;;;;;;;;5104775;28;20045;-84
2021/08/15 00:28:30;;;;;;;11.20;9.77;;;;;;;;;;5104422;28;20044;-85
2021/08/15 00:30:57;;;;;;;11.60;10.50;;;;;;;;;;5103661;28;20048;-85
2021/08/15 00:33:24;;;;;;;11.73;10.50;;;;;;;;;;5103439;28;20093;-84
2021/08/15 00:35:51;;;;;;;12.70;11.30;;;;;;;;;;5102287;28;20044;-84
2021/08/15 00:38:17;;;;;;;12.60;11.35;;;;;;;;;;5105418;28;20048;-84
2021/08/15 00:40:44;;;;;;;11.95;10.75;;;;;;;;;;5104082;28;20044;-83
2021/08/15 00:43:12;;;;;;;12.35;10.95;;;;;;;;;;5103691;28;20043;-84
2021/08/15 00:45:39;;;;;;;12.75;11.45;;;;;;;;;;5103201;28;20044;-84
2021/08/15 00:48:09;;;;;;;12.13;10.73;;;;;;;;;;5103832;28;20075;-84
2021/08/15 00:50:36;;;;;;;13.30;10.65;;;;;;;;;;5102974;28;20050;-84
2021/08/15 00:53:03;;;;;;;13.48;10.40;;;;;;;;;;5103556;28;20047;-83
2021/08/15 00:55:30;;;;;;;14.95;10.90;;;;;;;;;;5104377;28;20067;-84
2021/08/15 00:57:57;;;;;;;12.45;11.15;;;;;;;;;;5103690;28;20051;-85
2021/08/15 01:00:25;;;;;;;11.68;10.48;;;;;;;;;;5103124;28;20485;-84
2021/08/15 01:02:52;;;;;;;12.77;11.45;;;;;;;;;;5097322;28;20068;-83
2021/08/15 01:05:19;;;;;;;13.80;12.32;;;;;;;;;;5097411;28;20079;-83
2021/08/15 01:08:07;;;;;;;12.88;11.57;;;;;;;;;;5097235;28;20113;-83
2021/08/15 01:10:34;;;;;;;13.93;12.63;;;;;;;;;;5075803;28;20044;-84
2021/08/15 01:13:01;;;;;;;12.68;11.35;;;;;;;;;;5076993;28;20131;-82
2021/08/15 01:15:29;;;;;;;12.80;11.50;;;;;;;;;;5077186;28;20040;-83
2021/08/15 01:17:57;;;;;;;14.35;13.05;;;;;;;;;;5077479;28;20044;-83
2021/08/15 01:20:23;;;;;;;13.85;11.40;;;;;;;;;;5075863;28;20048;-84
2021/08/15 01:22:50;;;;;;;14.05;12.63;;;;;;;;;;5076940;28;20074;-83
2021/08/15 01:25:17;;;;;;;13.50;12.13;;;;;;;;;;5076734;28;20563;-83
2021/08/15 01:27:45;;;;;;;13.65;12.35;;;;;;;;;;5077120;28;20098;-83
2021/08/15 01:30:15;;;;;;;13.95;12.48;;;;;;;;;;5076832;28;20071;-83
2021/08/15 01:32:43;;;;;;;17.23;15.63;;;;;;;;;;5076743;28;20049;-83
2021/08/15 01:35:11;;;;;;;17.05;15.55;;;;;;;;;;5076939;28;20102;-83
2021/08/15 01:37:38;;;;;;;16.85;15.25;;;;;;;;;;5076879;28;20462;-83
2021/08/15 01:40:06;;;;;;;13.57;12.20;;;;;;;;;;5076307;28;20441;-83
2021/08/15 01:42:34;;;;;;;13.68;11.65;;;;;;;;;;5076524;28;20422;-83
2021/08/15 01:45:06;;;;;;;13.05;11.75;;;;;;;;;;5075726;28;20044;-83
2021/08/15 01:47:34;;;;;;;14.63;12.65;;;;;;;;;;5076469;28;20044;-83
2021/08/15 01:50:02;;;;;;;13.80;11.65;;;;;;;;;;5076390;28;20044;-83
2021/08/15 01:52:29;;;;;;;13.38;11.98;;;;;;;;;;5077658;28;20041;-82
2021/08/15 01:54:56;;;;;;;12.85;11.57;;;;;;;;;;5076556;28;20144;-83
2021/08/15 01:57:23;;;;;;;13.60;12.20;;;;;;;;;;5076055;28;20090;-83
2021/08/15 01:59:49;;;;;;;14.55;12.90;;;;;;;;;;5076387;28;20101;-83
2021/08/15 02:02:16;;;;;;;13.18;11.90;;;;;;;;;;5075868;28;20055;-83
2021/08/15 02:04:44;;;;;;;13.30;12.00;;;;;;;;;;5076393;28;20084;-83
2021/08/15 02:07:11;;;;;;;13.77;12.55;;;;;;;;;;5093733;28;20033;-82
2021/08/15 02:09:38;;;;;;;13.32;11.93;;;;;;;;;;5097580;28;20032;-83
2021/08/15 02:12:05;;;;;;;13.43;12.23;;;;;;;;;;5095816;28;20025;-83
2021/08/15 02:14:32;;;;;;;12.77;11.48;;;;;;;;;;5074278;28;20040;-83
2021/08/15 02:16:58;;;;;;;14.15;12.75;;;;;;;;;;5073315;28;20055;-82
2021/08/15 02:19:25;;;;;;;15.30;12.82;;;;;;;;;;5073636;28;20470;-83
2021/08/15 02:21:53;;;;;;;13.48;12.07;;;;;;;;;;5084061;28;20052;-81
2021/08/15 02:24:20;;;;;;;14.15;12.65;;;;;;;;;;5073358;28;20048;-82
2021/08/15 02:26:46;;;;;;;14.80;13.40;;;;;;;;;;5073158;28;20056;-82
2021/08/15 02:29:13;;;;;;;14.95;12.70;;;;;;;;;;5073555;28;20045;-83
2021/08/15 02:31:40;;;;;;;16.05;14.40;;;;;;;;;;5075116;28;20080;-84
2021/08/15 02:34:06;;;;;;;14.80;13.40;;;;;;;;;;5077505;28;20087;-83
2021/08/15 02:36:33;;;;;;;15.13;13.63;;;;;;;;;;5082041;28;20028;-83
2021/08/15 02:39:02;;;;;;;14.90;13.38;;;;;;;;;;5094911;28;20520;-82
2021/08/15 02:41:28;;;;;;;15.35;13.90;;;;;;;;;;5108026;22;20044;-81
2021/08/15 02:43:55;;;;;;;16.23;14.70;;;;;;;;;;5118896;28;20071;-81
2021/08/15 02:46:22;;;;;;;15.65;14.10;;;;;;;;;;5117824;28;20082;-81
2021/08/15 02:48:48;;;;;;;15.85;14.05;;;;;;;;;;5119350;28;20087;-81
2021/08/15 02:51:15;;;;;;;16.20;14.60;;;;;;;;;;5118682;28;20044;-81
2021/08/15 02:53:42;;;;;;;16.13;13.85;;;;;;;;;;5118902;28;20086;-81
2021/08/15 02:56:10;;;;;;;15.25;13.85;;;;;;;;;;5118908;28;20046;-81
2021/08/15 02:58:36;;;;;;;15.02;13.35;;;;;;;;;;5119384;28;20039;-81
2021/08/15 03:01:03;;;;;;;15.48;13.85;;;;;;;;;;5119158;28;20047;-81
2021/08/15 03:03:30;;;;;;;15.48;14.07;;;;;;;;;;5118992;28;20193;-81
2021/08/15 03:05:56;;;;;;;14.85;13.38;;;;;;;;;;5118776;28;20089;-82
2021/08/15 03:08:23;;;;;;;15.68;13.98;;;;;;;;;;5118644;28;20079;-82
2021/08/15 03:10:50;;;;;;;15.40;13.90;;;;;;;;;;5117995;28;20172;-81
2021/08/15 03:13:18;;;;;;;14.00;12.55;;;;;;;;;;5117427;28;20513;-81
2021/08/15 03:15:45;;;;;;;15.05;12.25;;;;;;;;;;5116777;28;20112;-81
2021/08/15 03:18:16;;;;;;;14.18;11.57;;;;;;;;;;5118003;28;20083;-81
2021/08/15 03:20:43;;;;;;;12.25;10.82;;;;;;;;;;5119242;28;20407;-82
2021/08/15 03:23:10;;;;;;;11.80;10.43;;;;;;;;;;5118476;28;20078;-82
2021/08/15 03:25:37;;;;;;;13.45;11.70;;;;;;;;;;5119422;28;20104;-82
2021/08/15 03:28:04;;;;;;;13.73;11.15;;;;;;;;;;5117632;28;20130;-80
2021/08/15 03:30:33;;;;;;;12.15;10.88;;;;;;;;;;5118190;28;20534;-81
2021/08/15 03:33:00;;;;;;;11.68;10.43;;;;;;;;;;5117278;28;20043;-81
2021/08/15 03:35:26;;;;;;;11.77;10.60;;;;;;;;;;5118420;28;20048;-81
2021/08/15 03:37:53;;;;;;;11.75;10.38;;;;;;;;;;5121522;28;20048;-82
2021/08/15 03:40:20;;;;;;;13.55;11.23;;;;;;;;;;5117428;28;20082;-81
2021/08/15 03:42:47;;;;;;;13.18;10.43;;;;;;;;;;5116107;28;20485;-81
2021/08/15 03:45:13;;;;;;;11.90;10.70;;;;;;;;;;5116797;28;20441;-81
2021/08/15 03:47:42;;;;;;;13.35;10.35;;;;;;;;;;5117823;28;20044;-81
2021/08/15 03:50:09;;;;;;;11.63;10.38;;;;;;;;;;5117188;28;20063;-81
2021/08/15 03:52:40;;;;;;;11.68;10.43;;;;;;;;;;5116770;28;20072;-81
2021/08/15 03:55:10;;;;;;;12.27;11.05;;;;;;;;;;5116013;28;20079;-81
2021/08/15 03:57:37;;;;;;;11.70;10.50;;;;;;;;;;5116012;28;20048;-81
2021/08/15 04:00:05;;;;;;;12.23;11.02;;;;;;;;;;5116097;28;20039;-81
2021/08/15 04:02:35;;;;;;;10.98;9.88;;;;;;;;;;5116115;28;20048;-81
2021/08/15 04:05:05;;;;;;;12.32;10.07;;;;;;;;;;5116822;28;20052;-81
2021/08/15 04:07:32;;;;;;;11.82;10.63;;;;;;;;;;5117700;28;20135;-80
2021/08/15 04:09:58;;;;;;;11.13;10.02;;;;;;;;;;5117074;28;20082;-80
2021/08/15 04:12:26;;;;;;;13.45;11.50;;;;;;;;;;5116835;28;20079;-80
2021/08/15 04:14:53;;;;;;;13.25;11.23;;;;;;;;;;5116932;28;20087;-80
2021/08/15 04:17:20;;;;;;;12.65;11.02;;;;;;;;;;5116050;28;20048;-80
2021/08/15 04:19:46;;;;;;;11.25;10.13;;;;;;;;;;5116817;28;20495;-80
2021/08/15 04:22:14;;;;;;;11.75;10.55;;;;;;;;;;5125028;28;20102;-81
2021/08/15 04:24:41;;;;;;;12.23;10.90;;;;;;;;;;5140462;27;20032;-81
2021/08/15 04:27:08;;;;;;;11.45;10.43;;;;;;;;;;5124894;27;20052;-80
2021/08/15 04:29:38;;;;;;;11.80;10.60;;;;;;;;;;5115231;28;20039;-81
2021/08/15 04:32:06;;;;;;;12.32;11.15;;;;;;;;;;5114964;28;20062;-80
2021/08/15 04:34:32;;;;;;;13.02;11.57;;;;;;;;;;5115135;28;20094;-80
2021/08/15 04:36:59;;;;;;;13.20;10.98;;;;;;;;;;5114706;28;20107;-80
2021/08/15 04:39:27;;;;;;;13.10;11.30;;;;;;;;;;5115865;28;20079;-80
2021/08/15 04:41:54;;;;;;;12.80;11.43;;;;;;;;;;5115118;28;20448;-81
2021/08/15 04:44:21;;;;;;;12.20;10.98;;;;;;;;;;5115778;28;20132;-81
2021/08/15 04:46:49;;;;;;;13.70;12.40;;;;;;;;;;5114816;28;20043;-81
2021/08/15 04:49:16;;;;;;;13.52;12.13;;;;;;;;;;5115523;28;20047;-81
2021/08/15 04:51:42;;;;;;;12.20;11.00;;;;;;;;;;5115590;28;20043;-80
2021/08/15 04:54:09;;;;;;;11.68;10.52;;;;;;;;;;5127973;28;20048;-81
2021/08/15 04:56:37;;;;;;;13.13;10.88;;;;;;;;;;5132428;28;20055;-80
2021/08/15 04:59:04;;;;;;;11.50;10.30;;;;;;;;;;5120037;28;20083;-80
2021/08/15 05:01:31;;;;;;;12.07;10.85;;;;;;;;;;5114568;28;20097;-82
2021/08/15 05:03:58;;;;;;;12.30;11.00;;;;;;;;;;5097079;28;20048;-82
2021/08/15 05:06:25;;;;;;;11.93;10.73;;;;;;;;;;5096394;28;20044;-81
2021/08/15 05:08:51;;;;;;;13.95;12.38;;;;;;;;;;5096923;28;20051;-83
2021/08/15 05:11:18;;;;;;;15.18;12.27;;;;;;;;;;5096357;28;20040;-82
2021/08/15 05:13:46;;;;;;;12.05;9.70;;;;;;;;;;5096618;28;20051;-82
2021/08/15 05:16:13;;;;;;;11.55;10.07;;;;;;;;;;5095592;28;20082;-81
2021/08/15 05:18:40;;;;;;;14.40;11.43;;;;;;;;;;5096791;28;20075;-81
2021/08/15 05:21:06;;;;;;;13.98;10.32;;;;;;;;;;5096458;28;20044;-81
2021/08/15 05:23:33;;;;;;;11.65;10.48;;;;;;;;;;5096735;28;20109;-81
2021/08/15 05:26:00;;;;;;;12.55;11.32;;;;;;;;;;5097534;28;20044;-82
2021/08/15 05:28:26;;;;;;;12.10;10.77;;;;;;;;;;5118381;28;20035;-81
2021/08/15 05:30:54;;;;;;;14.05;11.07;;;;;;;;;;5113074;28;20056;-82
2021/08/15 05:33:21;;;;;;;16.05;12.30;;;;;;;;;;5119095;28;20024;-82
2021/08/15 05:35:51;;;;;;;10.77;9.77;;;;;;;;;;5118461;28;20044;-81
2021/08/15 05:38:17;;;;;;;11.85;10.57;;;;;;;;;;5118632;28;20036;-81
2021/08/15 05:40:44;;;;;;;11.70;10.50;;;;;;;;;;5118039;28;20048;-82
2021/08/15 05:43:11;;;;;;;11.20;10.05;;;;;;;;;;5117962;28;20036;-82
2021/08/15 05:45:38;;;;;;;14.25;10.23;;;;;;;;;;5117901;28;20044;-81
2021/08/15 05:48:07;;;;;;;12.23;10.80;;;;;;;;;;5118238;28;20171;-81
2021/08/15 05:50:34;;;;;;;12.75;11.40;;;;;;;;;;5118432;28;20036;-81
2021/08/15 05:53:01;;;;;;;12.07;11.00;;;;;;;;;;5117694;28;20032;-81
2021/08/15 05:55:28;;;;;;;13.00;10.98;;;;;;;;;;5117170;28;20039;-81
2021/08/15 05:57:54;;;;;;;15.30;11.98;;;;;;;;;;5118361;28;20036;-81
2021/08/15 06:00:21;;;;;;;13.65;12.15;;;;;;;;;;5118356;28;20077;-82
2021/08/15 06:02:48;;;;;;;12.85;11.43;;;;;;;;;;5117644;28;20059;-81
2021/08/15 06:05:16;;;;;;;12.93;11.43;;;;;;;;;;5118094;28;20032;-81
2021/08/15 06:07:42;;;;;;;12.50;11.18;;;;;;;;;;5121060;28;20050;-81
2021/08/15 06:10:10;;;;;;;14.15;11.27;;;;;;;;;;5120355;28;20039;-80
2021/08/15 06:12:38;;;;;;;14.13;11.57;;;;;;;;;;5106858;28;20477;-81
2021/08/15 06:15:07;;;;;;;14.50;13.00;;;;;;;;;;5100383;28;20093;-80
2021/08/15 06:17:34;;;;;;;13.80;11.67;;;;;;;;;;5103336;28;20113;-80
2021/08/15 06:20:00;;;;;;;12.82;11.63;;;;;;;;;;5102650;28;20294;-82
2021/08/15 06:22:28;;;;;;;12.88;11.18;;;;;;;;;;5103122;28;20051;-81
2021/08/15 06:24:55;;;;;;;12.80;11.50;;;;;;;;;;5100236;28;20084;-81
2021/08/15 06:27:22;;;;;;;13.68;11.15;;;;;;;;;;5100223;28;20044;-81
2021/08/15 06:29:49;;;;;;;12.98;11.73;;;;;;;;;;5100147;28;20123;-81
2021/08/15 06:32:16;;;;;;;12.05;10.85;;;;;;;;;;5100152;28;20044;-81
2021/08/15 06:34:42;;;;;;;12.20;10.60;;;;;;;;;;5099660;28;20083;-81
2021/08/15 06:37:12;;;;;;;13.32;12.10;;;;;;;;;;5098594;28;20072;-81
2021/08/15 06:39:40;;;;;;;14.03;12.60;;;;;;;;;;5098837;28;20040;-82
2021/08/15 06:42:07;;;;;;;14.32;11.85;;;;;;;;;;5098558;28;20306;-81
2021/08/15 06:44:37;;;;;;;13.85;11.73;;;;;;;;;;5098364;28;20101;-81
2021/08/15 06:47:04;;;;;;;12.68;11.38;;;;;;;;;;5098533;28;20044;-82
2021/08/15 06:49:31;;;;;;;13.80;12.30;;;;;;;;;;5098288;28;20070;-81
2021/08/15 06:51:58;;;;;;;14.27;12.48;;;;;;;;;;5114144;28;20047;-81
2021/08/15 06:54:25;;;;;;;13.05;11.75;;;;;;;;;;5120956;28;20036;-81
2021/08/15 06:56:53;;;;;;;14.23;12.73;;;;;;;;;;5098596;28;20048;-81
2021/08/15 06:59:20;;;;;;;13.43;12.07;;;;;;;;;;5098495;28;20072;-81
2021/08/15 07:01:47;;;;;;;12.77;11.32;;;;;;;;;;5098275;28;20468;-81
2021/08/15 07:04:14;;;;;;;13.35;11.95;;;;;;;;;;5098440;28;20091;-81
2021/08/15 07:06:40;;;;;;;12.45;11.18;;;;;;;;;;5097750;28;20080;-82
2021/08/15 07:09:07;;;;;;;12.88;11.68;;;;;;;;;;5098151;28;20098;-82
2021/08/15 07:11:34;;;;;;;16.90;13.45;;;;;;;;;;5097401;28;20488;-82
2021/08/15 07:14:02;;;;;;;12.10;10.90;;;;;;;;;;5096957;28;20082;-81
2021/08/15 07:16:29;;;;;;;12.98;11.68;;;;;;;;;;5097157;28;20079;-82
2021/08/15 07:18:56;;;;;;;12.52;10.27;;;;;;;;;;5096496;28;20044;-82
2021/08/15 07:21:22;;;;;;;12.45;10.88;;;;;;;;;;5096602;28;20055;-82
2021/08/15 07:23:49;;;;;;;12.05;10.50;;;;;;;;;;5096642;28;20067;-81
2021/08/15 07:26:16;;;;;;;11.25;9.80;;;;;;;;;;5096036;28;20554;-81
2021/08/15 07:28:43;;;;;;;13.93;10.82;;;;;;;;;;5096799;28;20080;-82
2021/08/15 07:31:11;;;;;;;12.85;11.52;;;;;;;;;;5096490;28;20125;-82
2021/08/15 07:33:37;;;;;;;12.82;9.60;;;;;;;;;;5095948;28;20094;-81
2021/08/15 07:36:04;;;;;;;11.80;9.23;;;;;;;;;;5096236;28;20087;-82
2021/08/15 07:38:31;;;;;;;11.32;10.10;;;;;;;;;;5096400;28;20090;-81
2021/08/15 07:40:58;;;;;;;11.43;9.52;;;;;;;;;;5097349;28;20451;-82
2021/08/15 07:43:25;;;;;;;10.43;9.00;;;;;;;;;;5110842;28;20052;-82
2021/08/15 07:45:52;;;;;;;10.48;9.38;;;;;;;;;;5110585;28;20044;-82
2021/08/15 07:48:20;;;;;;;10.40;9.40;;;;;;;;;;5097279;28;20049;-82
2021/08/15 07:50:47;;;;;;;10.90;8.98;;;;;;;;;;5097065;28;20044;-82
2021/08/15 07:53:18;;;;;;;9.50;8.60;;;;;;;;;;5097295;28;20131;-82
2021/08/15 07:55:45;;;;;;;8.57;7.78;;;;;;;;;;5096388;28;20051;-82
2021/08/15 07:58:15;;;;;;;10.25;8.05;;;;;;;;;;5096455;28;20044;-82
2021/08/15 08:00:42;;;;;;;;;;;;;;;;;;5096491;28;20040;-82
2021/08/15 08:03:09;;;;;;;9.23;8.07;;;;;;;;;;5095983;28;20321;-82
2021/08/15 08:05:37;;;;;;;9.20;7.20;;;;;;;;;;5094608;28;20047;-82
2021/08/15 08:08:04;;;;;;;8.73;7.30;;;;;;;;;;5095842;28;20071;-82
2021/08/15 08:10:31;;;;;;;8.13;7.25;;;;;;;;;;5096359;28;20101;-82
2021/08/15 08:12:58;;;;;;;8.63;7.35;;;;;;;;;;5096142;28;20125;-82
2021/08/15 08:15:24;;;;;;;8.65;7.30;;;;;;;;;;5094735;28;20084;-82
2021/08/15 08:17:51;;;;;;;8.50;7.63;;;;;;;;;;5095221;28;20101;-82
2021/08/15 08:20:20;;;;;;;10.35;7.30;;;;;;;;;;5095152;28;20385;-82
2021/08/15 08:22:49;;;;;;;10.73;7.32;;;;;;;;;;5096198;28;20400;-82
2021/08/15 08:25:16;;;;;;;9.82;7.85;;;;;;;;;;5094370;28;20075;-82
2021/08/15 08:27:43;;;;;;;8.68;7.25;;;;;;;;;;5094173;28;20050;-82
2021/08/15 08:30:11;;;;;;;10.55;7.47;;;;;;;;;;5094785;28;20044;-83
2021/08/15 08:32:38;;;;;;;8.00;7.20;;;;;;;;;;5094782;28;20097;-83
2021/08/15 08:35:06;;;;;;;9.07;7.47;;;;;;;;;;5094082;28;20055;-82
2021/08/15 08:37:33;;;;;;;8.32;6.32;;;;;;;;;;5102941;28;20412;-80
2021/08/15 08:40:01;;;;;;;8.85;7.32;;;;;;;;;;5100290;28;20055;-81
2021/08/15 08:42:29;;;;;;;7.93;6.93;;;;;;;;;;5095126;28;20072;-81
2021/08/15 08:45:00;;;;;;;7.88;7.05;;;;;;;;;;5117687;22;20052;-83
2021/08/15 08:47:28;;;;;;;8.23;7.05;;;;;;;;;;5113471;28;20024;-81
2021/08/15 08:49:55;;;;;;;9.10;7.35;;;;;;;;;;5118492;27;20032;-81
2021/08/15 08:52:24;;;;;;;9.43;8.35;;;;;;;;;;5117862;27;20039;-82
2021/08/15 08:54:50;;;;;;;7.85;7.15;;;;;;;;;;5097788;28;20503;-82
2021/08/15 08:57:19;;;;;;;9.52;8.48;;;;;;;;;;5097062;28;20105;-82
2021/08/15 08:59:46;;;;;;;8.52;7.03;;;;;;;;;;5099096;28;20093;-82
2021/08/15 09:02:13;;;;;;;9.88;7.03;;;;;;;;;;5095851;28;20059;-82
2021/08/15 09:04:40;;;;;;;8.48;6.97;;;;;;;;;;5095221;28;20083;-82
2021/08/15 09:07:12;;;;;;;8.27;7.35;;;;;;;;;;5095764;28;20523;-82
2021/08/15 09:09:39;;;;;;;8.60;7.60;;;;;;;;;;5096366;28;20101;-82
2021/08/15 09:12:08;;;;;;;10.70;7.10;;;;;;;;;;5096049;28;20044;-82
2021/08/15 09:14:36;;;;;;;9.68;8.00;;;;;;;;;;5081280;28;20049;-82
2021/08/15 09:17:05;;;;;;;9.95;7.78;;;;;;;;;;5090412;28;20447;-82
2021/08/15 09:19:34;;;;;;;10.20;7.85;;;;;;;;;;5087238;28;20450;-82
2021/08/15 09:22:19;;;;;;;8.60;7.68;;;;;;;;;;5076892;28;20041;-83
2021/08/15 09:24:52;;;;;;;9.20;8.20;;;;;;;;;;5080446;28;20048;-83
2021/08/15 09:27:21;;;;;;;8.80;7.95;;;;;;;;;;5082774;28;20048;-82
2021/08/15 09:30:18;;;;;;;9.05;8.15;;;;;;;;;;5076638;28;20048;-83
2021/08/15 09:32:52;;;;;;;9.82;8.13;;;;;;;;;;5076084;28;20485;-84
2021/08/15 09:35:22;;;;;;;8.65;7.75;;;;;;;;;;5076269;28;20079;-83
2021/08/15 09:37:56;;;;;;;8.45;7.53;;;;;;;;;;5078340;28;20048;-82
2021/08/15 09:40:25;;;;;;;10.50;8.05;;;;;;;;;;5095567;28;20063;-84
2021/08/15 09:42:52;;;;;;;9.73;7.63;;;;;;;;;;5095925;28;20044;-84
2021/08/15 09:45:35;;;;;;;10.18;7.88;;;;;;;;;;5095800;28;20097;-83
2021/08/15 09:48:17;;;;;;;9.18;7.68;;;;;;;;;;5095469;28;20072;-83
2021/08/15 09:51:02;;;;;;;11.13;8.80;;;;;;;;;;5094827;28;20094;-84
2021/08/15 09:53:29;;;;;;;9.82;7.85;;;;;;;;;;5095957;28;20501;-83
2021/08/15 09:55:57;;;;;;;9.00;7.60;;;;;;;;;;5095151;28;20067;-84
2021/08/15 09:58:24;;;;;;;14.40;8.05;;;;;;;;;;5096562;28;20382;-84
2021/08/15 10:00:52;;;;;;;9.85;8.30;;;;;;;;;;5095950;28;20098;-83
2021/08/15 10:03:19;;;;;;;10.65;7.88;;;;;;;;;;5097340;28;20051;-83
2021/08/15 10:05:46;;;;;;;10.15;9.07;;;;;;;;;;5094847;28;20412;-83
2021/08/15 10:08:14;;;;;;;11.50;8.50;;;;;;;;;;5095634;28;20052;-84
2021/08/15 10:10:41;;;;;;;10.63;8.30;;;;;;;;;;5095164;28;20070;-83
2021/08/15 10:13:09;;;;;;;8.93;8.07;;;;;;;;;;5095329;28;20473;-84
2021/08/15 10:15:38;;;;;;;10.30;7.70;;;;;;;;;;5095176;28;20098;-83
2021/08/15 10:18:11;;;;;;;9.80;8.30;;;;;;;;;;5104944;28;20044;-83
2021/08/15 10:20:38;;;;;;;8.20;7.30;;;;;;;;;;5115935;28;20074;-81
2021/08/15 10:23:11;;;;;;;9.13;8.23;;;;;;;;;;5106162;28;20052;-83
2021/08/15 10:25:41;;;;;;;8.73;7.82;;;;;;;;;;5097095;28;20455;-83
2021/08/15 10:28:08;;;;;;;9.30;8.40;;;;;;;;;;5096075;28;20044;-82
2021/08/15 10:30:56;;;;;;;8.65;7.30;;;;;;;;;;5095075;28;20546;-84
2021/08/15 10:33:26;;;;;;;8.68;7.85;;;;;;;;;;5096317;28;20072;-84
2021/08/15 10:36:24;;;;;;;9.25;7.80;;;;;;;;;;5094799;28;20052;-84
2021/08/15 10:38:54;;;;;;;8.35;7.43;;;;;;;;;;5095365;28;20083;-83
2021/08/15 10:41:48;;;;;;;;;;;;;;;;;;5096497;28;20059;-83
2021/08/15 10:44:15;;;;;;;11.35;8.02;;;;;;;;;;5095393;28;19923;-82
2021/08/15 10:47:11;;;;;;;9.98;7.80;;;;;;;;;;5094723;28;20071;-82
2021/08/15 10:49:57;;;;;;;9.95;8.50;;;;;;;;;;5096203;28;20048;-83
2021/08/15 10:52:46;;;;;;;14.15;8.90;;;;;;;;;;5096934;28;20078;-87
2021/08/15 10:55:16;;;;;;;11.10;8.13;;;;;;;;;;5108608;28;20530;-84
2021/08/15 10:58:04;;;;;;;9.15;7.95;;;;;;;;;;5102160;28;20493;-86
2021/08/15 11:00:48;;;;;;;13.18;9.95;;;;;;;;;;5101097;28;20489;-88
2021/08/15 11:03:54;;;;;;;10.05;8.00;;;;;;;;;;5099286;28;20488;-84
2021/08/15 11:06:50;;;;;;;9.98;8.77;;;;;;;;;;5102726;28;20074;-83
2021/08/15 11:09:18;;;;;;;12.27;8.68;;;;;;;;;;5098890;28;20048;-84
2021/08/15 11:12:13;;;;;;;8.77;7.75;;;;;;;;;;5100054;28;20047;-83
2021/08/15 11:14:55;;;;;;;12.02;7.82;;;;;;;;;;5098668;28;20051;-84
2021/08/15 11:17:22;;;;;;;9.75;7.60;;;;;;;;;;5098459;28;20044;-79
2021/08/15 11:19:49;;;;;;;12.02;8.50;;;;;;;;;;5097458;28;20051;-81
2021/08/15 11:22:28;;;;;;;11.38;8.27;;;;;;;;;;5096858;28;20056;-81
2021/08/15 11:25:04;;;;;;;10.07;7.72;;;;;;;;;;5096785;28;20058;-80
2021/08/15 11:27:37;;;;;;;11.32;8.68;;;;;;;;;;5097896;28;20051;-80
2021/08/15 11:30:12;;;;;;;11.45;8.02;;;;;;;;;;5097586;28;20048;-80
2021/08/15 11:32:39;;;;;;;9.68;7.35;;;;;;;;;;5097895;28;20052;-84
2021/08/15 11:35:08;;;;;;;10.35;7.28;;;;;;;;;;5097894;28;20485;-85
2021/08/15 11:37:39;;;;;;;9.80;8.77;;;;;;;;;;5097726;28;20109;-86
2021/08/15 11:40:23;;;;;;;10.50;9.15;;;;;;;;;;5098308;28;20052;-87
2021/08/15 11:42:59;;;;;;;10.13;8.80;;;;;;;;;;5098539;28;20082;-87
2021/08/15 11:45:31;;;;;;;9.50;8.60;;;;;;;;;;5099799;28;20405;-77
2021/08/15 11:48:06;;;;;;;10.27;8.77;;;;;;;;;;5099240;28;20566;-78
2021/08/15 11:50:37;;;;;;;12.05;8.98;;;;;;;;;;5118500;28;20091;-80
2021/08/15 11:53:18;;;;;;;9.25;7.72;;;;;;;;;;5117030;28;20047;-80
2021/08/15 11:55:44;;;;;;;8.70;7.80;;;;;;;;;;5098723;28;20075;-80
2021/08/15 11:58:12;;;;;;;9.15;8.30;;;;;;;;;;5102002;28;20060;-80
2021/08/15 12:00:39;;;;;;;11.65;9.68;;;;;;;;;;5100062;28;20044;-80
2021/08/15 12:03:08;;;;;;;10.30;8.75;;;;;;;;;;5095167;28;20501;-77
2021/08/15 12:05:37;;;;;;;10.13;8.00;;;;;;;;;;5083506;28;20087;-78
2021/08/15 12:08:07;;;;;;;10.38;8.32;;;;;;;;;;5074629;28;20325;-78
2021/08/15 12:10:39;;;;;;;9.40;8.50;;;;;;;;;;5074741;28;20540;-79
2021/08/15 12:13:25;;;;;;;10.10;7.60;;;;;;;;;;5087084;28;20135;-79
2021/08/15 12:15:55;;;;;;;12.23;7.93;;;;;;;;;;5094340;28;20488;-79
2021/08/15 12:18:30;;;;;;;9.90;7.90;;;;;;;;;;5096486;28;20082;-79
2021/08/15 12:20:58;;;;;;;9.07;7.90;;;;;;;;;;5094081;28;20531;-79
2021/08/15 12:23:26;;;;;;;7.82;7.03;;;;;;;;;;5094221;28;20093;-77
2021/08/15 12:26:07;;;;;;;9.60;7.38;;;;;;;;;;5093565;28;20500;-81
2021/08/15 12:28:37;;;;;;;8.75;6.90;;;;;;;;;;5097826;28;20487;-81
2021/08/15 12:31:17;;;;;;;8.70;7.80;;;;;;;;;;5098583;28;20044;-82
2021/08/15 12:33:44;;;;;;;8.63;7.70;;;;;;;;;;5099781;28;20055;-81
2021/08/15 12:36:22;;;;;;;8.80;6.80;;;;;;;;;;5096725;28;20444;-82
2021/08/15 12:38:51;;;;;;;9.55;6.68;;;;;;;;;;5096485;28;20523;-82
2021/08/15 12:41:25;;;;;;;9.07;7.90;;;;;;;;;;5096921;28;20403;-81
2021/08/15 12:44:08;;;;;;;10.82;7.45;;;;;;;;;;5095341;28;20083;-77
2021/08/15 12:46:35;;;;;;;8.98;7.45;;;;;;;;;;5097187;28;20086;-79
2021/08/15 12:49:20;;;;;;;7.95;7.05;;;;;;;;;;5103744;28;20420;-81
2021/08/15 12:51:48;;;;;;;8.35;7.43;;;;;;;;;;5103735;28;20449;-80
2021/08/15 12:54:17;;;;;;;8.48;6.95;;;;;;;;;;5100684;28;20040;-79
2021/08/15 12:56:44;;;;;;;9.30;7.70;;;;;;;;;;5098386;28;20055;-81
2021/08/15 12:59:11;;;;;;;10.52;7.07;;;;;;;;;;5097318;28;20047;-80
2021/08/15 13:01:38;;;;;;;6.82;6.18;;;;;;;;;;5093709;28;20067;-78
2021/08/15 13:04:04;;;;;;;9.73;7.32;;;;;;;;;;5081628;28;20408;-77
2021/08/15 13:06:33;;;;;;;11.75;7.03;;;;;;;;;;5078725;28;20083;-77
2021/08/15 13:09:00;;;;;;;9.27;7.13;;;;;;;;;;5078529;28;20469;-77
2021/08/15 13:11:28;;;;;;;8.85;6.72;;;;;;;;;;5079183;28;20052;-77
2021/08/15 13:13:57;;;;;;;9.95;7.65;;;;;;;;;;5080499;28;20076;-77
2021/08/15 13:16:24;;;;;;;8.43;6.30;;;;;;;;;;5079040;28;20102;-78
2021/08/15 13:18:51;;;;;;;8.15;7.00;;;;;;;;;;5080046;28;20090;-77
2021/08/15 13:21:17;;;;;;;10.98;7.00;;;;;;;;;;5076596;28;20045;-78
2021/08/15 13:23:44;;;;;;;7.05;6.20;;;;;;;;;;5076992;28;20114;-78
2021/08/15 13:26:11;;;;;;;8.27;5.97;;;;;;;;;;5074901;28;20044;-79
2021/08/15 13:28:42;;;;;;;9.55;6.10;;;;;;;;;;5078139;28;20493;-79
2021/08/15 13:31:09;;;;;;;9.52;6.70;;;;;;;;;;5077278;28;20045;-79
2021/08/15 13:33:36;;;;;;;9.82;6.60;;;;;;;;;;5076689;28;20048;-86
2021/08/15 13:36:05;;;;;;;7.57;6.40;;;;;;;;;;5077835;28;20096;-90
2021/08/15 13:38:33;;;;;;;9.52;7.30;;;;;;;;;;5075941;28;20053;-86
2021/08/15 13:41:00;;;;;;;10.75;6.80;;;;;;;;;;5075199;28;20067;-85
2021/08/15 13:43:31;;;;;;;8.45;6.95;;;;;;;;;;5083077;28;20040;-86
2021/08/15 13:46:03;;;;;;;8.43;6.97;;;;;;;;;;5091012;28;20072;-85
2021/08/15 13:48:30;;;;;;;9.18;6.32;;;;;;;;;;5080263;28;20059;-84
2021/08/15 13:50:57;;;;;;;8.77;5.80;;;;;;;;;;5077176;28;20044;-85
2021/08/15 13:53:24;;;;;;;8.95;6.18;;;;;;;;;;5077235;28;20044;-85
2021/08/15 13:55:51;;;;;;;7.95;5.95;;;;;;;;;;5077117;28;20117;-85
2021/08/15 13:58:18;;;;;;;7.72;6.05;;;;;;;;;;5076767;28;20072;-86
2021/08/15 14:00:45;;;;;;;8.40;5.63;;;;;;;;;;5077403;28;20052;-86
2021/08/15 14:03:13;;;;;;;9.98;6.03;;;;;;;;;;5095550;28;20077;-86
2021/08/15 14:05:41;;;;;;;7.47;6.10;;;;;;;;;;5096761;28;20098;-86
2021/08/15 14:08:11;;;;;;;6.82;5.88;;;;;;;;;;5097152;28;20048;-86
2021/08/15 14:10:41;;;;;;;7.32;5.20;;;;;;;;;;5096858;28;20093;-87
2021/08/15 14:13:11;;;;;;;8.05;5.60;;;;;;;;;;5096189;28;20068;-85
2021/08/15 14:15:38;;;;;;;8.07;6.15;;;;;;;;;;5096698;28;20546;-86
2021/08/15 14:18:05;;;;;;;7.35;5.20;;;;;;;;;;5097198;28;20823;-86
2021/08/15 14:20:34;;;;;;;7.07;5.63;;;;;;;;;;5096293;28;20130;-85
2021/08/15 14:23:01;;;;;;;6.45;5.60;;;;;;;;;;5096611;28;20059;-86
2021/08/15 14:25:30;;;;;;;8.27;6.70;;;;;;;;;;5096272;28;20489;-86
2021/08/15 14:27:58;;;;;;;8.27;6.80;;;;;;;;;;5098983;28;20048;-85
2021/08/15 14:30:25;;;;;;;8.05;5.82;;;;;;;;;;5098886;28;20090;-85
2021/08/15 14:32:52;;;;;;;10.43;7.05;;;;;;;;;;5102656;28;20044;-86
2021/08/15 14:35:19;;;;;;;10.05;6.63;;;;;;;;;;5096979;28;20048;-86
2021/08/15 14:37:49;;;;;;;8.38;6.78;;;;;;;;;;5089663;28;20048;-86
2021/08/15 14:40:19;;;;;;;8.27;6.88;;;;;;;;;;5095154;28;20051;-86